createdAt,value
2018-11-14T00:01:33.249Z,8.40
2018-11-14T00:04:02.896Z,8.50
2018-11-14T00:06:34.157Z,8.40
2018-11-14T00:09:04.887Z,8.40
2018-11-14T00:11:34.478Z,8.40
2018-11-14T00:14:04.039Z,8.40
2018-11-14T00:16:33.657Z,8.40
2018-11-14T00:19:04.111Z,8.50
2018-11-14T00:21:33.558Z,8.50
2018-11-14T00:24:03.016Z,8.40
2018-11-14T00:26:32.488Z,8.40
2018-11-14T00:29:02.018Z,8.40
2018-11-14T00:31:31.481Z,8.40
2018-11-14T00:34:02.374Z,8.40
2018-11-14T00:36:32.649Z,8.40
2018-11-14T00:39:02.137Z,8.30
2018-11-14T00:41:31.629Z,8.40
2018-11-14T00:44:01.284Z,8.00
2018-11-14T00:46:30.808Z,8.00
2018-11-14T00:49:00.278Z,7.90
2018-11-14T00:51:30.073Z,7.80
2018-11-14T00:54:00.237Z,7.70
2018-11-14T00:56:29.696Z,7.60
2018-11-14T00:58:59.472Z,7.50
2018-11-14T01:01:28.957Z,7.40
2018-11-14T01:03:59.268Z,7.40
2018-11-14T01:06:28.889Z,7.40
2018-11-14T01:08:58.376Z,7.40
2018-11-14T01:11:28.006Z,7.40
2018-11-14T01:13:58.468Z,7.40
2018-11-14T01:16:28.010Z,7.50
2018-11-14T01:18:57.603Z,7.60
2018-11-14T01:21:27.125Z,7.60
2018-11-14T01:23:56.847Z,7.70
2018-11-14T01:26:26.918Z,7.80
2018-11-14T01:28:58.276Z,7.70
2018-11-14T01:44:30.354Z,7.70
2018-11-14T01:46:59.800Z,7.70
2018-11-14T01:49:29.282Z,7.80
2018-11-14T01:51:58.734Z,7.80
2018-11-14T01:54:28.287Z,7.80
2018-11-14T01:56:57.879Z,7.70
2018-11-14T01:59:29.323Z,7.70
2018-11-14T02:01:58.955Z,7.60
2018-11-14T02:04:28.434Z,7.60
2018-11-14T02:06:58.032Z,7.50
2018-11-14T02:22:30.952Z,7.40
2018-11-14T02:25:02.624Z,7.40
2018-11-14T02:27:32.130Z,7.10
2018-11-14T02:30:03.714Z,7.10
2018-11-14T02:32:33.179Z,7.10
2018-11-14T02:48:05.111Z,7.20
2018-11-14T02:50:34.699Z,7.10
2018-11-14T02:53:05.238Z,7.10
2018-11-14T02:55:34.729Z,7.20
2018-11-14T02:58:04.414Z,7.20
2018-11-14T03:00:33.884Z,7.30
2018-11-14T03:03:03.524Z,7.30
2018-11-14T03:05:33.024Z,7.30
2018-11-14T03:08:02.554Z,7.30
2018-11-14T03:10:32.024Z,7.20
2018-11-14T03:13:01.635Z,7.20
2018-11-14T03:15:31.251Z,7.20
2018-11-14T03:18:00.808Z,7.20
2018-11-14T03:20:30.275Z,7.10
2018-11-14T03:22:59.779Z,7.10
2018-11-14T03:25:29.173Z,7.00
2018-11-14T03:27:58.798Z,7.20
2018-11-14T03:30:28.228Z,7.30
2018-11-14T03:32:57.741Z,7.30
2018-11-14T03:35:31.450Z,7.30
2018-11-14T03:38:01.019Z,7.30
2018-11-14T03:40:30.431Z,7.30
2018-11-14T03:42:59.890Z,7.30
2018-11-14T03:45:29.388Z,7.30
2018-11-14T03:47:58.951Z,7.20
2018-11-14T03:50:28.440Z,7.20
2018-11-14T03:52:58.030Z,7.20
2018-11-14T03:55:27.597Z,7.10
2018-11-14T03:57:57.187Z,7.10
2018-11-14T04:00:26.815Z,7.10
2018-11-14T04:02:56.277Z,7.00
2018-11-14T04:05:25.885Z,7.00
2018-11-14T04:07:55.309Z,7.00
2018-11-14T04:10:25.857Z,7.00
2018-11-14T04:12:55.330Z,7.00
2018-11-14T04:15:24.926Z,6.90
2018-11-14T04:17:54.427Z,6.90
2018-11-14T04:20:23.836Z,6.90
2018-11-14T04:22:54.335Z,6.90
2018-11-14T04:25:23.843Z,6.90
2018-11-14T04:27:53.350Z,6.90
2018-11-14T04:30:23.686Z,6.90
2018-11-14T04:32:53.208Z,6.90
2018-11-14T04:35:22.712Z,6.90
2018-11-14T04:37:52.182Z,6.90
2018-11-14T04:40:23.845Z,6.80
2018-11-14T04:42:53.376Z,6.70
2018-11-14T04:45:25.831Z,6.70
2018-11-14T04:47:56.371Z,6.70
2018-11-14T04:50:27.011Z,6.70
2018-11-14T04:52:56.876Z,6.70
2018-11-14T04:55:27.108Z,6.70
2018-11-14T04:57:56.601Z,6.70
2018-11-14T05:00:26.886Z,6.60
2018-11-14T05:02:58.369Z,6.50
2018-11-14T05:05:27.893Z,6.40
2018-11-14T05:07:58.428Z,6.40
2018-11-14T05:10:27.904Z,6.40
2018-11-14T05:12:57.551Z,6.40
2018-11-14T05:15:26.959Z,6.40
2018-11-14T05:17:56.766Z,6.40
2018-11-14T05:20:26.283Z,6.40
2018-11-14T05:22:55.807Z,6.50
2018-11-14T05:38:28.408Z,6.50
2018-11-14T05:40:57.969Z,6.50
2018-11-14T05:43:27.633Z,6.50
2018-11-14T05:45:57.221Z,6.50
2018-11-14T05:48:26.673Z,6.40
2018-11-14T05:50:56.242Z,6.30
2018-11-14T05:53:25.689Z,6.30
2018-11-14T05:55:55.236Z,6.30
2018-11-14T05:58:24.834Z,6.30
2018-11-14T06:00:54.298Z,6.20
2018-11-14T06:03:23.974Z,6.20
2018-11-14T06:05:53.540Z,6.10
2018-11-14T06:08:23.088Z,6.00
2018-11-14T06:10:54.626Z,6.10
2018-11-14T06:13:24.148Z,6.10
2018-11-14T06:15:53.702Z,6.10
2018-11-14T06:18:23.213Z,6.00
2018-11-14T06:20:54.742Z,6.10
2018-11-14T06:23:24.323Z,6.10
2018-11-14T06:25:53.817Z,6.10
2018-11-14T06:28:24.747Z,6.10
2018-11-14T06:30:54.955Z,6.10
2018-11-14T06:33:25.530Z,6.10
2018-11-14T06:35:55.005Z,6.00
2018-11-14T06:38:26.524Z,6.00
2018-11-14T06:40:56.095Z,6.00
2018-11-14T06:43:25.591Z,6.00
2018-11-14T06:45:55.134Z,5.90
2018-11-14T06:48:24.669Z,5.80
2018-11-14T06:50:54.183Z,5.80
2018-11-14T06:53:23.778Z,5.80
2018-11-14T06:55:55.293Z,5.80
2018-11-14T06:58:24.820Z,5.80
2018-11-14T07:00:54.387Z,5.80
2018-11-14T07:03:24.907Z,5.90
2018-11-14T07:05:54.549Z,6.00
2018-11-14T07:08:23.900Z,5.90
2018-11-14T07:10:53.539Z,5.90
2018-11-14T07:13:23.090Z,5.90
2018-11-14T07:15:52.606Z,5.90
2018-11-14T07:18:22.391Z,5.80
2018-11-14T07:20:54.639Z,5.90
2018-11-14T07:23:24.212Z,5.80
2018-11-14T07:25:53.768Z,5.90
2018-11-14T07:28:23.290Z,5.90
2018-11-14T07:30:52.900Z,6.00
2018-11-14T07:33:22.532Z,6.00
2018-11-14T07:35:51.977Z,6.00
2018-11-14T07:38:33.784Z,6.10
2018-11-14T07:41:04.621Z,6.20
2018-11-14T07:43:36.221Z,6.30
2018-11-14T07:46:07.357Z,6.30
2018-11-14T07:48:37.244Z,6.20
2018-11-14T07:51:07.066Z,6.30
2018-11-14T07:53:36.604Z,6.30
2018-11-14T07:56:06.196Z,6.30
2018-11-14T07:58:35.925Z,6.40
2018-11-14T08:01:06.010Z,6.50
2018-11-14T08:03:35.717Z,6.50
2018-11-14T08:19:07.649Z,6.50
2018-11-14T08:21:37.131Z,6.40
2018-11-14T08:24:07.692Z,6.20
2018-11-14T08:26:37.241Z,6.10
2018-11-14T08:29:07.062Z,6.10
2018-11-14T08:31:36.722Z,6.10
2018-11-14T08:34:06.687Z,6.10
2018-11-14T08:36:36.331Z,6.00
2018-11-14T08:39:07.685Z,5.90
2018-11-14T08:41:37.139Z,5.80
2018-11-14T08:44:06.766Z,5.80
2018-11-14T08:46:36.378Z,5.80
2018-11-14T08:49:05.974Z,5.90
2018-11-14T08:51:36.255Z,6.10
2018-11-14T09:07:15.602Z,6.20
2018-11-14T09:09:46.238Z,6.40
2018-11-14T09:12:16.408Z,6.50
2018-11-14T09:14:45.923Z,6.50
2018-11-14T09:17:15.524Z,6.50
2018-11-14T09:19:45.101Z,6.40
2018-11-14T09:22:14.568Z,6.40
2018-11-14T09:24:44.859Z,6.50
2018-11-14T09:27:14.420Z,6.50
2018-11-14T09:29:44.016Z,6.60
2018-11-14T09:32:13.587Z,6.50
2018-11-14T09:34:43.097Z,6.50
2018-11-14T09:37:12.649Z,6.50
2018-11-14T09:39:42.185Z,6.60
2018-11-14T09:42:11.729Z,6.60
2018-11-14T09:44:43.842Z,6.60
2018-11-14T09:47:13.398Z,6.70
2018-11-14T09:49:44.437Z,6.60
2018-11-14T09:52:14.014Z,6.70
2018-11-14T09:54:43.526Z,6.80
2018-11-14T09:57:13.211Z,6.80
2018-11-14T09:59:42.693Z,6.80
2018-11-14T10:02:12.217Z,6.80
2018-11-14T10:04:41.901Z,6.70
2018-11-14T10:07:11.475Z,6.70
2018-11-14T10:09:42.030Z,6.70
2018-11-14T10:12:11.572Z,6.70
2018-11-14T10:14:41.240Z,6.80
2018-11-14T10:17:11.896Z,6.90
2018-11-14T10:19:41.390Z,6.90
2018-11-14T10:22:10.885Z,6.90
2018-11-14T10:24:42.509Z,7.00
2018-11-14T10:27:12.009Z,7.00
2018-11-14T10:29:42.336Z,7.10
2018-11-14T10:32:11.910Z,7.30
2018-11-14T10:34:42.454Z,7.20
2018-11-14T10:37:11.962Z,7.30
2018-11-14T10:39:42.491Z,7.30
2018-11-14T10:42:11.949Z,7.40
2018-11-14T10:44:41.510Z,7.60
2018-11-14T10:47:12.015Z,7.70
2018-11-14T10:49:41.569Z,7.70
2018-11-14T10:52:12.076Z,7.70
2018-11-14T10:54:41.589Z,7.60
2018-11-14T11:10:19.627Z,7.50
2018-11-14T11:12:54.415Z,7.40
2018-11-14T11:16:29.645Z,7.00
2018-11-14T11:18:59.078Z,7.00
2018-11-14T11:21:28.688Z,7.10
2018-11-14T11:23:58.211Z,7.20
2018-11-14T11:26:27.728Z,7.20
2018-11-14T11:28:57.161Z,7.30
2018-11-14T11:31:27.212Z,7.40
2018-11-14T11:33:56.804Z,7.30
2018-11-14T11:36:27.342Z,7.40
2018-11-14T11:51:59.261Z,7.40
2018-11-14T11:54:28.821Z,7.60
2018-11-14T11:56:58.384Z,7.60
2018-11-14T11:59:27.980Z,7.60
2018-11-14T12:01:57.520Z,7.60
2018-11-14T12:04:27.080Z,7.70
2018-11-14T12:06:56.563Z,7.50
2018-11-14T12:09:27.111Z,7.60
2018-11-14T12:11:56.709Z,7.70
2018-11-14T12:14:26.257Z,7.80
2018-11-14T12:16:56.844Z,7.80
2018-11-14T12:19:26.356Z,7.80
2018-11-14T12:21:55.874Z,7.90
2018-11-14T12:24:25.424Z,7.90
2018-11-14T12:26:54.929Z,7.90
2018-11-14T12:29:24.597Z,7.90
2018-11-14T12:31:54.077Z,7.90
2018-11-14T12:34:23.572Z,7.80
2018-11-14T12:36:53.114Z,7.80
2018-11-14T12:39:23.690Z,7.70
2018-11-14T12:41:53.435Z,7.60
2018-11-14T12:44:22.808Z,7.60
2018-11-14T12:46:54.707Z,7.50
2018-11-14T12:49:24.848Z,7.50
2018-11-14T12:51:54.445Z,7.50
2018-11-14T12:54:24.607Z,7.40
2018-11-14T12:56:54.381Z,7.30
2018-11-14T12:59:24.106Z,7.20
2018-11-14T13:01:53.719Z,7.20
2018-11-14T13:04:23.268Z,7.10
2018-11-14T13:06:52.782Z,7.10
2018-11-14T13:09:22.336Z,7.10
2018-11-14T13:11:52.853Z,7.20
2018-11-14T13:14:23.521Z,7.20
2018-11-14T13:16:53.098Z,7.30
2018-11-14T13:19:22.614Z,7.20
2018-11-14T13:21:52.187Z,7.00
2018-11-14T13:24:21.690Z,7.00
2018-11-14T13:26:51.403Z,7.00
2018-11-14T13:29:20.910Z,7.10
2018-11-14T13:31:50.411Z,7.00
2018-11-14T13:34:19.979Z,7.00
2018-11-14T13:36:49.570Z,7.00
2018-11-14T13:39:19.050Z,7.10
2018-11-14T13:41:48.670Z,7.10
2018-11-14T13:44:18.201Z,7.10
2018-11-14T13:46:47.681Z,7.10
2018-11-14T13:49:17.290Z,7.20
2018-11-14T13:51:46.747Z,7.10
2018-11-14T13:54:17.281Z,7.10
2018-11-14T13:56:46.756Z,7.10
2018-11-14T13:59:17.308Z,7.20
2018-11-14T14:01:46.924Z,7.20
2018-11-14T14:04:16.515Z,7.20
2018-11-14T14:06:46.459Z,7.30
2018-11-14T14:09:16.182Z,7.30
2018-11-14T14:11:47.744Z,7.30
2018-11-14T14:14:19.001Z,7.30
2018-11-14T14:16:48.510Z,7.30
2018-11-14T14:19:19.024Z,7.30
2018-11-14T14:21:48.608Z,7.30
2018-11-14T14:24:18.082Z,7.20
2018-11-14T14:26:48.867Z,7.20
2018-11-14T14:29:20.473Z,7.20
2018-11-14T14:31:50.137Z,7.20
2018-11-14T14:34:19.574Z,7.20
2018-11-14T14:36:49.094Z,7.10
2018-11-14T14:39:19.593Z,7.20
2018-11-14T14:41:50.104Z,7.30
2018-11-14T14:44:19.689Z,7.30
2018-11-14T14:46:49.461Z,7.30
2018-11-14T14:49:20.029Z,7.30
2018-11-14T14:51:49.655Z,7.30
2018-11-14T14:54:19.153Z,7.20
2018-11-14T14:56:50.673Z,7.30
2018-11-14T14:59:20.218Z,7.20
2018-11-14T15:01:50.780Z,7.20
2018-11-14T15:04:21.212Z,7.10
2018-11-14T15:06:50.752Z,7.10
2018-11-14T15:09:20.419Z,7.00
2018-11-14T15:11:50.725Z,6.90
2018-11-14T15:14:21.783Z,6.80
2018-11-14T15:16:51.299Z,6.70
2018-11-14T15:19:20.790Z,6.60
2018-11-14T15:21:50.696Z,6.50
2018-11-14T15:24:20.177Z,6.50
2018-11-14T15:26:50.768Z,6.50
2018-11-14T15:29:20.371Z,6.40
2018-11-14T15:31:50.315Z,6.40
2018-11-14T15:34:20.447Z,6.40
2018-11-14T15:36:50.283Z,6.30
2018-11-14T15:39:20.791Z,6.40
2018-11-14T15:41:50.992Z,6.40
2018-11-14T15:44:20.598Z,6.50
2018-11-14T15:46:50.948Z,6.50
2018-11-14T15:49:20.522Z,6.50
2018-11-14T15:51:50.184Z,6.50
2018-11-14T15:54:19.628Z,6.50
2018-11-14T15:56:49.149Z,6.50
2018-11-14T15:59:19.444Z,6.40
2018-11-14T16:01:49.937Z,6.50
2018-11-14T16:04:20.444Z,6.40
2018-11-14T16:06:50.394Z,6.40
2018-11-14T16:09:20.171Z,6.40
2018-11-14T16:11:49.765Z,6.40
2018-11-14T16:14:19.359Z,6.40
2018-11-14T16:16:49.345Z,6.40
2018-11-14T16:19:19.047Z,6.40
2018-11-14T16:21:50.322Z,6.40
2018-11-14T16:24:19.899Z,6.40
2018-11-14T16:26:49.424Z,6.40
2018-11-14T16:29:18.941Z,6.40
2018-11-14T16:31:48.564Z,6.30
2018-11-14T16:34:18.071Z,6.30
2018-11-14T16:36:47.580Z,6.30
2018-11-14T16:39:17.194Z,6.30
2018-11-14T16:41:46.651Z,6.30
2018-11-14T16:44:16.178Z,6.40
2018-11-14T16:46:46.748Z,6.40
2018-11-14T16:49:16.256Z,6.40
2018-11-14T16:51:45.775Z,6.40
2018-11-14T16:54:15.329Z,6.40
2018-11-14T16:56:44.824Z,6.50
2018-11-14T16:59:14.411Z,6.50
2018-11-14T17:01:43.935Z,6.50
2018-11-14T17:04:13.496Z,6.70
2018-11-14T17:06:43.048Z,6.70
2018-11-14T17:09:13.447Z,6.80
2018-11-14T17:11:45.378Z,6.90
2018-11-14T17:14:14.933Z,6.90
2018-11-14T17:16:45.444Z,6.90
2018-11-14T17:19:15.996Z,6.90
2018-11-14T17:21:46.186Z,6.80
2018-11-14T17:24:15.698Z,6.80
2018-11-14T17:26:45.293Z,6.70
2018-11-14T17:29:14.850Z,6.60
2018-11-14T17:31:46.353Z,6.60
2018-11-14T17:34:15.888Z,6.60
2018-11-14T17:36:45.477Z,6.70
2018-11-14T17:52:18.406Z,6.70
2018-11-14T17:54:48.949Z,6.60
2018-11-14T17:57:18.391Z,6.60
2018-11-14T17:59:47.911Z,6.60
2018-11-14T18:02:18.400Z,6.60
2018-11-14T18:04:47.880Z,6.70
2018-11-14T18:07:17.468Z,6.70
2018-11-14T18:09:49.023Z,6.70
2018-11-14T18:12:18.485Z,6.70
2018-11-14T18:14:48.213Z,6.70
2018-11-14T18:17:41.235Z,6.70
2018-11-14T18:20:31.312Z,6.60
2018-11-14T18:23:01.276Z,6.70
2018-11-14T18:25:30.865Z,6.70
2018-11-14T18:28:00.761Z,6.80
2018-11-14T18:30:31.148Z,6.80
2018-11-14T18:33:03.977Z,6.70
2018-11-14T18:35:33.529Z,6.70
2018-11-14T18:38:04.152Z,6.70
2018-11-14T18:40:34.647Z,6.60
2018-11-14T18:43:04.256Z,6.60
2018-11-14T18:45:35.053Z,6.60
2018-11-14T19:01:07.716Z,6.50
2018-11-14T19:03:37.296Z,6.60
2018-11-14T19:06:06.812Z,6.60
2018-11-14T19:08:36.405Z,6.60
2018-11-14T19:11:06.582Z,6.60
2018-11-14T19:13:36.215Z,6.60
2018-11-14T19:16:06.707Z,6.60
2018-11-14T19:18:38.231Z,6.60
2018-11-14T19:21:07.614Z,6.60
2018-11-14T19:23:37.156Z,6.70
2018-11-14T19:26:07.051Z,6.70
2018-11-14T19:28:37.379Z,6.60
2018-11-14T19:31:06.897Z,6.60
2018-11-14T19:33:36.501Z,6.60
2018-11-14T19:36:06.178Z,6.60
2018-11-14T19:38:36.670Z,6.60
2018-11-14T19:41:06.241Z,6.70
2018-11-14T19:43:35.792Z,6.70
2018-11-14T19:46:05.771Z,6.60
2018-11-14T19:48:35.262Z,6.60
2018-11-14T19:51:05.177Z,6.70
2018-11-14T19:53:34.728Z,6.70
2018-11-14T19:56:04.390Z,6.60
2018-11-14T19:58:34.068Z,6.60
2018-11-14T20:01:04.624Z,6.50
2018-11-14T20:03:34.186Z,6.50
2018-11-14T20:06:05.126Z,6.50
2018-11-14T20:08:34.686Z,6.60
2018-11-14T20:11:04.597Z,6.70
2018-11-14T20:13:34.057Z,6.70
2018-11-14T20:16:03.623Z,6.80
2018-11-14T20:18:33.124Z,6.80
2018-11-14T20:21:03.013Z,6.70
2018-11-14T20:23:32.644Z,6.70
2018-11-14T20:26:02.197Z,6.70
2018-11-14T20:28:31.669Z,6.70
2018-11-14T20:31:01.328Z,6.70
2018-11-14T20:33:30.971Z,6.80
2018-11-14T20:36:00.452Z,6.70
2018-11-14T20:38:29.935Z,6.70
2018-11-14T20:40:59.378Z,6.70
2018-11-14T20:43:29.890Z,6.80
2018-11-14T20:46:00.523Z,6.80
2018-11-14T20:48:30.976Z,6.70
2018-11-14T20:51:00.477Z,6.80
2018-11-14T20:53:29.964Z,6.70
2018-11-14T20:55:59.635Z,6.70
2018-11-14T20:58:29.161Z,6.80
2018-11-14T21:00:58.736Z,6.80
2018-11-14T21:03:28.322Z,6.70
2018-11-14T21:05:58.438Z,6.70
2018-11-14T21:08:28.014Z,6.80
2018-11-14T21:10:57.527Z,6.90
2018-11-14T21:13:27.089Z,6.90
2018-11-14T21:15:57.655Z,7.00
2018-11-14T21:18:27.187Z,7.00
2018-11-14T21:20:58.307Z,7.00
2018-11-14T21:23:28.439Z,7.00
2018-11-14T21:25:58.033Z,7.00
2018-11-14T21:28:27.655Z,7.10
2018-11-14T21:30:57.235Z,7.00
2018-11-14T21:33:26.704Z,6.90
2018-11-14T21:35:57.277Z,6.90
2018-11-14T21:38:27.914Z,6.80
2018-11-14T21:40:57.408Z,6.80
2018-11-14T21:43:28.015Z,6.90
2018-11-14T21:45:57.446Z,6.90
2018-11-14T21:48:26.926Z,6.90
2018-11-14T21:50:56.501Z,6.90
2018-11-14T21:53:26.066Z,6.90
2018-11-14T21:56:33.693Z,6.80
2018-11-14T21:59:03.226Z,6.90
2018-11-14T22:01:32.771Z,6.90
2018-11-14T22:04:02.286Z,6.90
2018-11-14T22:06:31.810Z,6.90
2018-11-14T22:09:01.398Z,6.70
2018-11-14T22:11:30.888Z,6.70
2018-11-14T22:14:00.413Z,6.70
2018-11-14T22:16:29.935Z,6.70
2018-11-14T22:18:59.825Z,6.70
2018-11-14T22:21:29.282Z,6.70
2018-11-14T22:23:58.811Z,6.80
2018-11-14T22:26:28.478Z,6.70
2018-11-14T22:28:57.989Z,6.70
2018-11-14T22:31:28.716Z,6.60
2018-11-14T22:34:00.180Z,6.60
2018-11-14T22:36:29.705Z,6.70
2018-11-14T22:39:00.191Z,6.70
2018-11-14T22:41:30.350Z,6.70
2018-11-14T22:43:59.947Z,6.70
2018-11-14T22:46:29.456Z,6.70
2018-11-14T22:48:59.028Z,6.70
2018-11-14T22:51:29.552Z,6.80
2018-11-14T22:53:59.957Z,6.70
2018-11-14T22:56:29.407Z,6.80
2018-11-14T22:58:58.881Z,6.80
2018-11-14T23:01:28.395Z,6.80
2018-11-14T23:03:57.957Z,6.80
2018-11-14T23:06:27.461Z,6.70
2018-11-14T23:08:56.976Z,6.70
2018-11-14T23:11:27.262Z,6.80
2018-11-14T23:13:56.907Z,6.70
2018-11-14T23:16:26.447Z,6.60
2018-11-14T23:18:55.918Z,6.60
2018-11-14T23:21:25.447Z,6.70
2018-11-14T23:23:54.925Z,6.60
2018-11-14T23:26:24.518Z,6.50
2018-11-14T23:28:54.778Z,6.50
2018-11-14T23:31:24.367Z,6.50
2018-11-14T23:33:53.862Z,6.40
2018-11-14T23:36:24.357Z,6.40
2018-11-14T23:38:53.927Z,6.40
2018-11-14T23:41:23.423Z,6.40
2018-11-14T23:43:52.985Z,6.50
2018-11-14T23:46:22.554Z,6.40
2018-11-14T23:48:52.081Z,6.40
2018-11-14T23:51:21.536Z,6.40
2018-11-14T23:53:51.030Z,6.40
2018-11-14T23:56:20.598Z,6.40
2018-11-14T23:58:50.236Z,6.50
